AirNav   TITAN Aviation Fuels
 
 1079 users online  

2ND2 Makeeff Airport
Mercer, North Dakota, USA

GOING TO MERCER?


FAA INFORMATION EFFECTIVE 01 DECEMBER 2022

Location

FAA Identifier: 2ND2
Lat/Long: 47-34-00.9960N 100-43-16.4920W
47-34.016600N 100-43.274867W
47.5669433,-100.7212478
(estimated)
Elevation: 1910 ft. / 582 m (estimated)
Variation: 10E (1985)
From city: 4 miles N of MERCER, ND
Time zone: UTC -6 (UTC -5 during Daylight Saving Time)
Zip code: 58575

Airport Operations

Airport use: Private use. Permission required prior to landing
Control tower: no
ARTCC: MINNEAPOLIS CENTER
FSS: GRAND FORKS FLIGHT SERVICE STATION
Attendance: UNATNDD
OWNER LIVES BESIDE STRIP.
Wind indicator: yes
Segmented circle: no

Airport Services

Runway Information

Runway E/W

Dimensions: 2600 x 70 ft. / 792 x 21 m
Surface: turf
RUNWAY E  RUNWAY W
Traffic pattern: leftleft

Airport Ownership and Management from official FAA records

Ownership: Privately-owned
Owner: RUSSELL MAKEEFF
MERCER, ND 58559
Phone 701-447-2467

Airport Operational Statistics

Aircraft based on the field: 1
Single engine airplanes: 1
    

Additional Remarks

FOR CD CTC MINNEAPOLIS ARTCC AT 651-463-5588.

Instrument Procedures

There are no published instrument procedures at 2ND2.

Some nearby airports with instrument procedures:

D05 - Garrison Municipal Airport (29 nm W)
5H4 - Harvey Municipal Airport (35 nm NE)
KHZE - Mercer County Regional Airport (39 nm SW)
KMOT - Minot International Airport (47 nm NW)
KBIS - Bismarck Municipal Airport (48 nm S)
 
Loc | Ops | Rwys | IFR | FBO | Links
Com | Nav | Svcs | Stats | Notes

Bismarck Aero Center
AirBoss

 
Area around 2ND2 (Makeeff Airport)
 
Road maps at: MapQuest Bing Google
 
Aerial photo
No photo
 
Sectional chart

 
Airport distance calculator
Flying to Makeeff Airport? Find the distance to fly.

From to 2ND2

Sunrise and sunset
Times for 03-Dec-2022
 Local
(UTC-6)
 Zulu
(UTC)
Morning civil twilight07:3813:38
Sunrise08:1314:13
Sunset16:5222:52
Evening civil twilight17:2723:27

Current date and time
Zulu (UTC)  04-Dec-2022 01:14:54
Local (UTC-6)  03-Dec-2022 19:14:54
 
METAR
KN60 
29nm W 
040052Z AUTO 00000KT M14/M17 A3007 RMK AO1 SLP233 T11441172
K5H4 
35nm NE 
040055Z AUTO 26006KT 10SM CLR M16/M16 A3010 RMK AO2
KHZE 
39nm SW 
040055Z AUTO 00000KT 10SM CLR M18/M20 A3011 RMK AO2
KMOT 
46nm NW 
040054Z 22010KT 10SM CLR M12/M17 A3004 RMK AO2 SLP218 T11221172
KBIS 
48nm S 
040052Z AUTO 00000KT 10SM CLR M14/M18 A3013 RMK AO2 SLP248 T11391178
KY19 
48nm S 
040055Z AUTO 18005KT 10SM CLR M12/M15 A3011 RMK AO2
TAF
KMOT 
46nm NW 
031727Z 0318/0418 22008KT P6SM SKC FM040300 26012G17KT P6SM SCT250 WS010/30035KT FM041000 25013G23KT P6SM FEW250 WS009/28040KT FM041600 25020G29KT P6SM FEW250
KBIS 
48nm S 
032046Z 0321/0418 26006KT P6SM SKC FM040000 24005KT P6SM SKC FM041400 23010KT P6SM SKC WS020/28040KT
NOTAMs
Click for the latest NOTAMs
NOTAMs are issued by the DoD/FAA and will open in a separate window not controlled by AirNav.

 

 
 

Would you like to see your business listed on this page?

 If your business provides an interesting product or service to pilots, flight crews, aircraft, or users of the Makeeff Airport, you should consider listing it here.  To start the listing process, click on the button below
 
Add a business
 

Other Pages about Makeeff Airport

Update a link
 
Copyright © AirNav, LLC. All rights reserved. Privacy Policy  Contact